Time,TemperatureF,DewpointF,PressureIn,WindDirection,WindDirectionDegrees,WindSpeedMPH,WindSpeedGustMPH,Humidity,HourlyPrecipIn,Conditions,Clouds,dailyrainin,SoftwareType,DateUTC
2013-06-03 08:22:00,53.0,53.0,30.10,ENE,68,0.0,-999.0,99,-99.99,,,-99.99,,2013-06-03 13:22:00,
2013-06-03 08:32:00,53.0,53.0,30.10,ENE,68,0.0,-999.0,99,-99.99,,,-99.99,,2013-06-03 13:32:00,
2013-06-03 08:43:00,53.0,53.0,30.10,ENE,68,0.0,-999.0,99,-99.99,,,-99.99,,2013-06-03 13:43:00,
2013-06-03 08:53:00,56.0,56.0,30.10,ENE,77,0.0,-999.0,99,-99.99,,,-99.99,,2013-06-03 13:53:00,
2013-06-03 09:02:00,56.0,56.0,30.10,ENE,77,0.0,-999.0,99,-99.99,,,-99.99,,2013-06-03 14:02:00,
2013-06-03 09:12:00,56.0,56.0,30.10,ENE,77,0.0,-999.0,99,-99.99,,,-99.99,,2013-06-03 14:12:00,
2013-06-03 09:22:00,59.0,57.0,30.10,ESE,111,1.0,-999.0,92,-99.99,,,-99.99,,2013-06-03 14:22:00,
2013-06-03 09:32:00,59.0,57.0,30.10,ESE,111,1.0,-999.0,92,-99.99,,,-99.99,,2013-06-03 14:32:00,
2013-06-03 09:42:00,59.0,57.0,30.10,ESE,111,1.0,-999.0,92,-99.99,,,-99.99,,2013-06-03 14:42:00,
2013-06-03 09:52:00,62.0,53.0,30.10,ESE,111,2.0,-999.0,72,-99.99,,,-99.99,,2013-06-03 14:52:00,
2013-06-03 10:02:00,62.0,53.0,30.10,ESE,111,2.0,-999.0,72,-99.99,,,-99.99,,2013-06-03 15:02:00,
2013-06-03 10:12:00,62.0,53.0,30.10,ESE,111,2.0,-999.0,72,-99.99,,,-99.99,,2013-06-03 15:12:00,
2013-06-03 10:22:00,64.0,53.0,30.09,East,89,1.0,-999.0,68,-99.99,,,-99.99,,2013-06-03 15:22:00,
2013-06-03 10:33:00,64.0,53.0,30.09,East,89,1.0,-999.0,68,-99.99,,,-99.99,,2013-06-03 15:33:00,
2013-06-03 10:43:00,64.0,53.0,30.09,East,89,1.0,-999.0,68,-99.99,,,-99.99,,2013-06-03 15:43:00,
2013-06-03 10:53:00,65.0,54.0,30.08,ESE,121,2.0,-999.0,67,-99.99,,,-99.99,,2013-06-03 15:53:00,
2013-06-03 11:03:00,65.0,54.0,30.08,ESE,121,2.0,-999.0,67,-99.99,,,-99.99,,2013-06-03 16:03:00,
2013-06-03 11:13:00,65.0,54.0,30.08,ESE,121,2.0,-999.0,67,-99.99,,,-99.99,,2013-06-03 16:13:00,
2013-06-03 11:23:00,65.0,54.0,30.08,SE,134,2.0,-999.0,68,-99.99,,,-99.99,,2013-06-03 16:23:00,
2013-06-03 11:33:00,65.0,54.0,30.08,SE,134,2.0,-999.0,68,-99.99,,,-99.99,,2013-06-03 16:33:00,
2013-06-03 11:42:00,66.0,54.0,30.07,South,173,3.0,-999.0,65,-99.99,,,-99.99,,2013-06-03 16:42:00,
2013-06-03 11:53:00,66.0,54.0,30.07,South,173,3.0,-999.0,65,-99.99,,,-99.99,,2013-06-03 16:53:00,
2013-06-03 12:02:00,66.0,54.0,30.07,South,173,3.0,-999.0,65,-99.99,,,-99.99,,2013-06-03 17:02:00,
2013-06-03 12:12:00,66.0,54.0,30.07,South,173,3.0,-999.0,65,-99.99,,,-99.99,,2013-06-03 17:12:00,
2013-06-03 12:22:00,67.0,54.0,30.06,SSE,163,2.0,-999.0,63,-99.99,,,-99.99,,2013-06-03 17:22:00,
2013-06-03 12:33:00,67.0,54.0,30.06,SSE,163,2.0,-999.0,63,-99.99,,,-99.99,,2013-06-03 17:33:00,
2013-06-03 12:42:00,67.0,54.0,30.06,SSE,163,2.0,-999.0,63,-99.99,,,-99.99,,2013-06-03 17:42:00,
2013-06-03 12:52:00,68.0,54.0,30.05,North,349,3.0,-999.0,61,-99.99,,,-99.99,,2013-06-03 17:52:00,
2013-06-03 13:02:00,68.0,54.0,30.05,North,349,3.0,-999.0,61,-99.99,,,-99.99,,2013-06-03 18:02:00,
2013-06-03 13:12:00,69.0,55.0,30.04,ESE,114,3.0,-999.0,61,-99.99,,,-99.99,,2013-06-03 18:12:00,
2013-06-03 13:22:00,69.0,55.0,30.04,ESE,114,3.0,-999.0,61,-99.99,,,-99.99,,2013-06-03 18:22:00,
2013-06-03 13:32:00,69.0,55.0,30.04,ESE,114,3.0,-999.0,61,-99.99,,,-99.99,,2013-06-03 18:32:00,
2013-06-03 13:43:00,69.0,55.0,30.04,ESE,114,3.0,-999.0,61,-99.99,,,-99.99,,2013-06-03 18:43:00,
2013-06-03 13:52:00,69.0,55.0,30.03,South,174,4.0,-999.0,61,-99.99,,,-99.99,,2013-06-03 18:52:00,
2013-06-03 14:03:00,69.0,55.0,30.03,South,174,4.0,-999.0,61,-99.99,,,-99.99,,2013-06-03 19:03:00,
2013-06-03 14:12:00,69.0,55.0,30.03,South,174,4.0,-999.0,61,-99.99,,,-99.99,,2013-06-03 19:12:00,
2013-06-03 14:22:00,70.0,54.0,30.03,SE,143,2.0,-999.0,56,-99.99,,,-99.99,,2013-06-03 19:22:00,
2013-06-03 14:32:00,70.0,54.0,30.03,SE,143,2.0,-999.0,56,-99.99,,,-99.99,,2013-06-03 19:32:00,
2013-06-03 14:42:00,70.0,54.0,30.03,SE,143,2.0,-999.0,56,-99.99,,,-99.99,,2013-06-03 19:42:00,
2013-06-03 14:53:00,71.0,56.0,30.03,SSE,152,3.0,-999.0,59,-99.99,,,-99.99,,2013-06-03 19:53:00,
2013-06-03 15:02:00,71.0,56.0,30.03,SSE,152,3.0,-999.0,59,-99.99,,,-99.99,,2013-06-03 20:02:00,
2013-06-03 15:12:00,71.0,56.0,30.03,SSE,152,3.0,-999.0,59,-99.99,,,-99.99,,2013-06-03 20:12:00,
2013-06-03 15:22:00,72.0,56.0,30.02,SE,126,2.0,-999.0,58,-99.99,,,-99.99,,2013-06-03 20:22:00,
2013-06-03 15:32:00,72.0,56.0,30.02,SE,126,2.0,-999.0,58,-99.99,,,-99.99,,2013-06-03 20:32:00,
2013-06-03 15:43:00,72.0,56.0,30.02,SE,126,2.0,-999.0,58,-99.99,,,-99.99,,2013-06-03 20:43:00,
2013-06-03 15:52:00,73.0,55.0,30.01,ESE,123,3.0,-999.0,54,-99.99,,,-99.99,,2013-06-03 20:52:00,
2013-06-03 16:02:00,73.0,55.0,30.01,ESE,123,3.0,-999.0,54,-99.99,,,-99.99,,2013-06-03 21:02:00,
2013-06-03 16:12:00,73.0,55.0,30.01,ESE,123,3.0,-999.0,54,-99.99,,,-99.99,,2013-06-03 21:12:00,
2013-06-03 16:22:00,73.0,56.0,29.98,SE,132,5.0,-999.0,56,-99.99,,,-99.99,,2013-06-03 21:22:00,
2013-06-03 16:33:00,73.0,56.0,29.98,SE,132,5.0,-999.0,56,-99.99,,,-99.99,,2013-06-03 21:33:00,
2013-06-03 16:43:00,73.0,56.0,29.98,SE,132,5.0,-999.0,56,-99.99,,,-99.99,,2013-06-03 21:43:00,
2013-06-03 16:53:00,73.0,56.0,29.98,SSE,165,3.0,-999.0,56,-99.99,,,-99.99,,2013-06-03 21:53:00,
2013-06-03 17:03:00,73.0,56.0,29.98,SSE,165,3.0,-999.0,56,-99.99,,,-99.99,,2013-06-03 22:03:00,
2013-06-03 17:12:00,73.0,56.0,29.98,SSE,165,3.0,-999.0,56,-99.99,,,-99.99,,2013-06-03 22:12:00,
2013-06-03 17:22:00,74.0,56.0,29.97,East,86,4.0,-999.0,53,-99.99,,,-99.99,,2013-06-03 22:22:00,
2013-06-03 17:32:00,74.0,56.0,29.97,East,86,4.0,-999.0,53,-99.99,,,-99.99,,2013-06-03 22:32:00,
2013-06-03 17:42:00,74.0,56.0,29.97,East,86,4.0,-999.0,53,-99.99,,,-99.99,,2013-06-03 22:42:00,
2013-06-03 17:53:00,74.0,55.0,29.96,SE,136,3.0,-999.0,52,-99.99,,,-99.99,,2013-06-03 22:53:00,
2013-06-03 18:02:00,74.0,55.0,29.96,SE,136,3.0,-999.0,52,-99.99,,,-99.99,,2013-06-03 23:02:00,
2013-06-03 18:12:00,74.0,55.0,29.96,SE,136,3.0,-999.0,52,-99.99,,,-99.99,,2013-06-03 23:12:00,
2013-06-03 18:22:00,74.0,56.0,29.96,ESE,104,3.0,-999.0,54,-99.99,,,-99.99,,2013-06-03 23:22:00,
2013-06-03 18:32:00,74.0,56.0,29.96,ESE,104,3.0,-999.0,54,-99.99,,,-99.99,,2013-06-03 23:32:00,
2013-06-03 18:42:00,74.0,56.0,29.96,ESE,104,3.0,-999.0,54,-99.99,,,-99.99,,2013-06-03 23:42:00,
2013-06-03 18:52:00,73.0,56.0,29.96,ESE,115,2.0,-999.0,56,-99.99,,,-99.99,,2013-06-03 23:52:00,
2013-06-03 19:02:00,73.0,56.0,29.96,ESE,115,2.0,-999.0,56,-99.99,,,-99.99,,2013-06-04 00:02:00,
2013-06-03 19:12:00,73.0,56.0,29.96,ESE,115,2.0,-999.0,56,-99.99,,,-99.99,,2013-06-04 00:12:00,
2013-06-03 19:22:00,72.0,55.0,29.96,ESE,114,3.0,-999.0,56,-99.99,,,-99.99,,2013-06-04 00:22:00,
2013-06-03 19:32:00,72.0,55.0,29.96,ESE,114,3.0,-999.0,56,-99.99,,,-99.99,,2013-06-04 00:32:00,
2013-06-03 19:42:00,72.0,55.0,29.96,ESE,114,3.0,-999.0,56,-99.99,,,-99.99,,2013-06-04 00:42:00,
2013-06-03 19:52:00,71.0,57.0,29.95,East,98,1.0,-999.0,61,-99.99,,,-99.99,,2013-06-04 00:52:00,
2013-06-03 20:02:00,71.0,57.0,29.95,East,98,1.0,-999.0,61,-99.99,,,-99.99,,2013-06-04 01:02:00,
2013-06-03 20:12:00,71.0,57.0,29.95,East,98,1.0,-999.0,61,-99.99,,,-99.99,,2013-06-04 01:12:00,
2013-06-03 20:22:00,69.0,58.0,29.96,East,98,0.0,-999.0,67,-99.99,,,-99.99,,2013-06-04 01:22:00,
2013-06-03 20:32:00,69.0,58.0,29.96,East,98,0.0,-999.0,67,-99.99,,,-99.99,,2013-06-04 01:32:00,
2013-06-03 20:42:00,69.0,58.0,29.96,East,98,0.0,-999.0,67,-99.99,,,-99.99,,2013-06-04 01:42:00,
2013-06-03 20:53:00,67.0,60.0,29.96,East,98,0.0,-999.0,77,-99.99,,,-99.99,,2013-06-04 01:53:00,
2013-06-03 21:02:00,67.0,60.0,29.96,East,98,0.0,-999.0,77,-99.99,,,-99.99,,2013-06-04 02:02:00,
2013-06-03 21:12:00,67.0,60.0,29.96,East,98,0.0,-999.0,77,-99.99,,,-99.99,,2013-06-04 02:12:00,
2013-06-03 21:22:00,63.0,58.0,29.96,East,98,0.0,-999.0,85,-99.99,,,-99.99,,2013-06-04 02:22:00,
2013-06-03 21:32:00,63.0,58.0,29.96,East,98,0.0,-999.0,85,-99.99,,,-99.99,,2013-06-04 02:32:00,
2013-06-03 21:42:00,63.0,58.0,29.96,East,98,0.0,-999.0,85,-99.99,,,-99.99,,2013-06-04 02:42:00,
2013-06-03 21:52:00,61.0,57.0,29.97,East,98,0.0,-999.0,88,-99.99,,,-99.99,,2013-06-04 02:52:00,
2013-06-03 22:02:00,61.0,57.0,29.97,East,98,0.0,-999.0,88,-99.99,,,-99.99,,2013-06-04 03:02:00,
2013-06-03 22:12:00,61.0,57.0,29.97,East,98,0.0,-999.0,88,-99.99,,,-99.99,,2013-06-04 03:12:00,
2013-06-03 22:22:00,60.0,57.0,29.98,East,98,0.0,-999.0,90,-99.99,,,-99.99,,2013-06-04 03:22:00,
2013-06-03 22:30:00,59.0,57.0,29.98,East,98,0.0,-999.0,92,-99.99,,,-99.99,,2013-06-04 03:30:00,
2013-06-03 22:32:00,60.0,57.0,29.98,East,98,0.0,-999.0,90,-99.99,,,-99.99,,2013-06-04 03:32:00,
2013-06-03 22:43:00,60.0,57.0,29.98,East,98,0.0,-999.0,90,-99.99,,,-99.99,,2013-06-04 03:43:00,
2013-06-03 22:53:00,59.0,57.0,29.98,East,98,0.0,-999.0,92,-99.99,,,-99.99,,2013-06-04 03:53:00,
2013-06-03 23:03:00,59.0,57.0,29.98,East,98,0.0,-999.0,92,-99.99,,,-99.99,,2013-06-04 04:03:00,
2013-06-03 23:13:00,59.0,57.0,29.98,East,98,0.0,-999.0,92,-99.99,,,-99.99,,2013-06-04 04:13:00,
2013-06-03 23:23:00,59.0,57.0,29.98,East,98,0.0,-999.0,92,-99.99,,,-99.99,,2013-06-04 04:23:00,